BVX177 ENKR-ENTC
Flight info
| Callsign | BVX177 |
|---|---|
| Flight time | 0h 42m |
| Altitude | 34000 |
| Route | VADLA DCT TINOS DCT KIIKA |
| Aircraft | A319/M-SDE3FGHIRWY/LB1 |
Departure
| Time | 2026-04-27 12:44 |
|---|---|
| Airport | Kirkenes Airport, Høybuktmoen (ENKR) |
Arrival
| Time | 2026-04-27 13:26 |
|---|---|
| Airport | Tromsø Airport (ENTC) |
| Time | Latitude | Longitude | Altitude | Speed | Heading |
|---|---|---|---|---|---|
| 2026-04-27 12:17 | 69.72206 | 29.88346 | 303 ft | 0 kts | 159° |
| 2026-04-27 12:40 | 69.72205 | 29.88356 | 299 ft | 1 kts | 124° |
| 2026-04-27 12:40 | 69.72211 | 29.88366 | 299 ft | 1 kts | 37° |
| 2026-04-27 12:40 | 69.72224 | 29.88341 | 297 ft | 6 kts | 331° |
| 2026-04-27 12:40 | 69.72282 | 29.88446 | 296 ft | 15 kts | 65° |
| 2026-04-27 12:41 | 69.72382 | 29.88464 | 297 ft | 19 kts | 339° |
| 2026-04-27 12:41 | 69.72484 | 29.88548 | 295 ft | 20 kts | 68° |
| 2026-04-27 12:41 | 69.72535 | 29.88952 | 299 ft | 22 kts | 69° |
| 2026-04-27 12:41 | 69.72594 | 29.89396 | 299 ft | 26 kts | 70° |
| 2026-04-27 12:42 | 69.72664 | 29.89920 | 297 ft | 30 kts | 69° |
| 2026-04-27 12:42 | 69.72744 | 29.90520 | 297 ft | 34 kts | 70° |
| 2026-04-27 12:42 | 69.72830 | 29.91173 | 294 ft | 34 kts | 69° |
| 2026-04-27 12:42 | 69.72896 | 29.91672 | 298 ft | 23 kts | 69° |
| 2026-04-27 12:43 | 69.72954 | 29.91999 | 296 ft | 13 kts | 51° |
| 2026-04-27 12:43 | 69.72949 | 29.92051 | 300 ft | 1 kts | 208° |
| 2026-04-27 12:43 | 69.72938 | 29.91981 | 298 ft | 8 kts | 248° |
| 2026-04-27 12:43 | 69.72849 | 29.91310 | 293 ft | 76 kts | 249° |
| 2026-04-27 12:44 | 69.72563 | 29.89155 | 301 ft | 151 kts | 249° |
| 2026-04-27 12:44 | 69.72191 | 29.86208 | 976 ft | 154 kts | 258° |
| 2026-04-27 12:44 | 69.71817 | 29.83322 | 1934 ft | 153 kts | 259° |
| 2026-04-27 12:44 | 69.71559 | 29.80411 | 2584 ft | 146 kts | 279° |
| 2026-04-27 12:45 | 69.71623 | 29.77575 | 3246 ft | 140 kts | 287° |
| 2026-04-27 12:45 | 69.71760 | 29.74685 | 3761 ft | 153 kts | 288° |
| 2026-04-27 12:45 | 69.71923 | 29.71542 | 4219 ft | 170 kts | 287° |
| 2026-04-27 12:45 | 69.72097 | 29.67989 | 4697 ft | 188 kts | 285° |
| 2026-04-27 12:46 | 69.72272 | 29.64063 | 5180 ft | 208 kts | 284° |
| 2026-04-27 12:46 | 69.72461 | 29.59692 | 5667 ft | 232 kts | 283° |
| 2026-04-27 12:46 | 69.72663 | 29.54827 | 6345 ft | 253 kts | 282° |
| 2026-04-27 12:46 | 69.72860 | 29.49678 | 7285 ft | 261 kts | 281° |
| 2026-04-27 12:47 | 69.73046 | 29.44436 | 8313 ft | 265 kts | 281° |
| 2026-04-27 12:47 | 69.73228 | 29.39089 | 9341 ft | 270 kts | 280° |
| 2026-04-27 12:47 | 69.73410 | 29.33657 | 10298 ft | 276 kts | 279° |
| 2026-04-27 12:47 | 69.73606 | 29.27903 | 10724 ft | 300 kts | 279° |
| 2026-04-27 12:48 | 69.73819 | 29.21663 | 11055 ft | 324 kts | 278° |
| 2026-04-27 12:48 | 69.74043 | 29.15002 | 11474 ft | 341 kts | 278° |
| 2026-04-27 12:48 | 69.74269 | 29.08100 | 12191 ft | 349 kts | 278° |
| 2026-04-27 12:48 | 69.74490 | 29.01167 | 12956 ft | 354 kts | 278° |
| 2026-04-27 12:49 | 69.74711 | 28.94047 | 13733 ft | 359 kts | 277° |
| 2026-04-27 12:49 | 69.74934 | 28.86826 | 14432 ft | 364 kts | 277° |
| 2026-04-27 12:49 | 69.75163 | 28.79511 | 15120 ft | 368 kts | 277° |
| 2026-04-27 12:49 | 69.75367 | 28.72096 | 15804 ft | 373 kts | 276° |
| 2026-04-27 12:50 | 69.75542 | 28.64584 | 16500 ft | 378 kts | 275° |
| 2026-04-27 12:50 | 69.75702 | 28.56970 | 17207 ft | 382 kts | 274° |
| 2026-04-27 12:50 | 69.75856 | 28.49245 | 17904 ft | 387 kts | 274° |
| 2026-04-27 12:50 | 69.76007 | 28.41444 | 18571 ft | 391 kts | 274° |
| 2026-04-27 12:51 | 69.76159 | 28.33553 | 19212 ft | 395 kts | 274° |
| 2026-04-27 12:51 | 69.76315 | 28.25607 | 19861 ft | 398 kts | 274° |
| 2026-04-27 12:51 | 69.76473 | 28.17596 | 20500 ft | 401 kts | 274° |
| 2026-04-27 12:51 | 69.76634 | 28.09530 | 21121 ft | 404 kts | 274° |
| 2026-04-27 12:52 | 69.76793 | 28.01394 | 21722 ft | 407 kts | 274° |
| 2026-04-27 12:52 | 69.76948 | 27.93204 | 22311 ft | 410 kts | 274° |
| 2026-04-27 12:52 | 69.77096 | 27.84959 | 22890 ft | 412 kts | 274° |
| 2026-04-27 12:52 | 69.77235 | 27.76660 | 23444 ft | 415 kts | 274° |
| 2026-04-27 12:53 | 69.77505 | 27.59983 | 24397 ft | 421 kts | 274° |
| 2026-04-27 12:53 | 69.77641 | 27.51506 | 24834 ft | 424 kts | 274° |
| 2026-04-27 12:53 | 69.77774 | 27.42959 | 25263 ft | 427 kts | 274° |
| 2026-04-27 12:54 | 69.77904 | 27.34351 | 25683 ft | 430 kts | 274° |
| 2026-04-27 12:54 | 69.78029 | 27.25680 | 26109 ft | 433 kts | 274° |
| 2026-04-27 12:54 | 69.78149 | 27.16945 | 26528 ft | 436 kts | 274° |
| 2026-04-27 12:54 | 69.78265 | 27.08154 | 26925 ft | 439 kts | 274° |
| 2026-04-27 12:55 | 69.78380 | 26.99290 | 27304 ft | 442 kts | 274° |
| 2026-04-27 12:55 | 69.78492 | 26.90381 | 27682 ft | 445 kts | 274° |
| 2026-04-27 12:55 | 69.78599 | 26.81404 | 28042 ft | 448 kts | 274° |
| 2026-04-27 12:55 | 69.78702 | 26.72371 | 28403 ft | 451 kts | 274° |
| 2026-04-27 12:56 | 69.78801 | 26.63406 | 28745 ft | 453 kts | 274° |
| 2026-04-27 12:56 | 69.78897 | 26.54264 | 29074 ft | 456 kts | 274° |
| 2026-04-27 12:56 | 69.78985 | 26.44944 | 29408 ft | 458 kts | 274° |
| 2026-04-27 12:56 | 69.79063 | 26.35867 | 29877 ft | 458 kts | 274° |
| 2026-04-27 12:57 | 69.79138 | 26.26665 | 30338 ft | 457 kts | 274° |
| 2026-04-27 12:57 | 69.79211 | 26.17481 | 30712 ft | 457 kts | 274° |
| 2026-04-27 12:57 | 69.79277 | 26.08286 | 31064 ft | 457 kts | 274° |
| 2026-04-27 12:57 | 69.79331 | 25.99087 | 31420 ft | 457 kts | 273° |
| 2026-04-27 12:58 | 69.79377 | 25.89888 | 31784 ft | 457 kts | 273° |
| 2026-04-27 12:58 | 69.79419 | 25.80684 | 32144 ft | 457 kts | 273° |
| 2026-04-27 12:58 | 69.79457 | 25.71467 | 32505 ft | 458 kts | 273° |
| 2026-04-27 12:58 | 69.79495 | 25.62264 | 32874 ft | 458 kts | 273° |
| 2026-04-27 12:59 | 69.79529 | 25.53058 | 33240 ft | 458 kts | 273° |
| 2026-04-27 12:59 | 69.79556 | 25.43850 | 33623 ft | 458 kts | 273° |
| 2026-04-27 12:59 | 69.79578 | 25.34615 | 34002 ft | 458 kts | 272° |
| 2026-04-27 12:59 | 69.79592 | 25.25390 | 34156 ft | 458 kts | 272° |
| 2026-04-27 13:00 | 69.79599 | 25.07124 | 34178 ft | 456 kts | 272° |
| 2026-04-27 13:00 | 69.79594 | 24.88778 | 34180 ft | 456 kts | 272° |
| 2026-04-27 13:01 | 69.79574 | 24.70437 | 34183 ft | 456 kts | 272° |
| 2026-04-27 13:01 | 69.79535 | 24.52108 | 34193 ft | 456 kts | 272° |
| 2026-04-27 13:02 | 69.79475 | 24.33780 | 34191 ft | 456 kts | 272° |
| 2026-04-27 13:02 | 69.79399 | 24.15536 | 34200 ft | 455 kts | 272° |
| 2026-04-27 13:03 | 69.79304 | 23.97151 | 34200 ft | 455 kts | 271° |
| 2026-04-27 13:03 | 69.79192 | 23.78938 | 34207 ft | 455 kts | 271° |
| 2026-04-27 13:04 | 69.79057 | 23.60640 | 34218 ft | 455 kts | 271° |
| 2026-04-27 13:04 | 69.78899 | 23.42362 | 34218 ft | 455 kts | 271° |
| 2026-04-27 13:05 | 69.78721 | 23.24080 | 34214 ft | 455 kts | 271° |
| 2026-04-27 13:05 | 69.78525 | 23.05801 | 34211 ft | 455 kts | 271° |
| 2026-04-27 13:06 | 69.78317 | 22.87529 | 34214 ft | 455 kts | 270° |
| 2026-04-27 13:06 | 69.78090 | 22.69248 | 34210 ft | 455 kts | 270° |
| 2026-04-27 13:07 | 69.77845 | 22.51095 | 34221 ft | 455 kts | 270° |
| 2026-04-27 13:07 | 69.77578 | 22.32835 | 34223 ft | 455 kts | 270° |
| 2026-04-27 13:08 | 69.77291 | 22.14587 | 34230 ft | 455 kts | 270° |
| 2026-04-27 13:08 | 69.76993 | 21.96335 | 34229 ft | 455 kts | 270° |
| 2026-04-27 13:09 | 69.76834 | 21.87238 | 33897 ft | 454 kts | 270° |
| 2026-04-27 13:09 | 69.76668 | 21.78009 | 32644 ft | 466 kts | 270° |
| 2026-04-27 13:09 | 69.76496 | 21.68605 | 31797 ft | 468 kts | 270° |
| 2026-04-27 13:09 | 69.76317 | 21.59245 | 31068 ft | 466 kts | 270° |
| 2026-04-27 13:10 | 69.76133 | 21.49911 | 30149 ft | 466 kts | 270° |
| 2026-04-27 13:10 | 69.75944 | 21.40571 | 29038 ft | 466 kts | 270° |
| 2026-04-27 13:10 | 69.75750 | 21.31220 | 27880 ft | 467 kts | 269° |
| 2026-04-27 13:10 | 69.75546 | 21.21864 | 26696 ft | 467 kts | 269° |
| 2026-04-27 13:11 | 69.75338 | 21.12494 | 25477 ft | 468 kts | 268° |
| 2026-04-27 13:11 | 69.75006 | 21.03174 | 24504 ft | 465 kts | 262° |
| 2026-04-27 13:11 | 69.74200 | 20.94289 | 23552 ft | 463 kts | 252° |
| 2026-04-27 13:11 | 69.72918 | 20.85827 | 22526 ft | 458 kts | 245° |
| 2026-04-27 13:12 | 69.71507 | 20.77663 | 21430 ft | 453 kts | 245° |
| 2026-04-27 13:12 | 69.70116 | 20.69635 | 20606 ft | 443 kts | 245° |
| 2026-04-27 13:12 | 69.68750 | 20.61772 | 19805 ft | 435 kts | 245° |
| 2026-04-27 13:12 | 69.67409 | 20.54065 | 19009 ft | 427 kts | 245° |
| 2026-04-27 13:13 | 69.66085 | 20.46482 | 18181 ft | 421 kts | 245° |
| 2026-04-27 13:13 | 69.64786 | 20.39059 | 17445 ft | 411 kts | 245° |
| 2026-04-27 13:13 | 69.63512 | 20.31813 | 16764 ft | 403 kts | 245° |
| 2026-04-27 13:13 | 69.62257 | 20.24695 | 16102 ft | 396 kts | 245° |
| 2026-04-27 13:14 | 69.61016 | 20.17701 | 15469 ft | 390 kts | 245° |
| 2026-04-27 13:14 | 69.59791 | 20.10839 | 14846 ft | 384 kts | 245° |
| 2026-04-27 13:14 | 69.58579 | 20.04075 | 14232 ft | 378 kts | 245° |
| 2026-04-27 13:14 | 69.57402 | 19.97519 | 13583 ft | 372 kts | 246° |
| 2026-04-27 13:15 | 69.56227 | 19.90992 | 12945 ft | 366 kts | 246° |
| 2026-04-27 13:15 | 69.55069 | 19.84569 | 12319 ft | 360 kts | 246° |
| 2026-04-27 13:15 | 69.53924 | 19.78259 | 11675 ft | 355 kts | 246° |
| 2026-04-27 13:15 | 69.52812 | 19.72153 | 11348 ft | 343 kts | 246° |
| 2026-04-27 13:16 | 69.51738 | 19.66274 | 11220 ft | 326 kts | 246° |
| 2026-04-27 13:16 | 69.50714 | 19.60667 | 11071 ft | 311 kts | 246° |
| 2026-04-27 13:16 | 69.49737 | 19.55316 | 10944 ft | 299 kts | 246° |
| 2026-04-27 13:16 | 69.48793 | 19.50157 | 10781 ft | 288 kts | 246° |
| 2026-04-27 13:17 | 69.47875 | 19.45151 | 10522 ft | 282 kts | 246° |
| 2026-04-27 13:17 | 69.46971 | 19.40237 | 10261 ft | 277 kts | 246° |
| 2026-04-27 13:17 | 69.46078 | 19.35395 | 10127 ft | 276 kts | 246° |
| 2026-04-27 13:17 | 69.45185 | 19.30553 | 9967 ft | 276 kts | 246° |
| 2026-04-27 13:18 | 69.44293 | 19.25732 | 9826 ft | 276 kts | 246° |
| 2026-04-27 13:18 | 69.43394 | 19.20916 | 9683 ft | 275 kts | 246° |
| 2026-04-27 13:18 | 69.42485 | 19.16046 | 9097 ft | 284 kts | 245° |
| 2026-04-27 13:18 | 69.41571 | 19.11172 | 8938 ft | 275 kts | 245° |
| 2026-04-27 13:19 | 69.40715 | 19.06434 | 8780 ft | 263 kts | 252° |
| 2026-04-27 13:19 | 69.40287 | 19.01578 | 8649 ft | 246 kts | 269° |
| 2026-04-27 13:19 | 69.40341 | 18.96873 | 8434 ft | 234 kts | 283° |
| 2026-04-27 13:19 | 69.40695 | 18.92454 | 8091 ft | 231 kts | 286° |
| 2026-04-27 13:20 | 69.41057 | 18.88019 | 7671 ft | 230 kts | 286° |
| 2026-04-27 13:20 | 69.41416 | 18.83586 | 7145 ft | 232 kts | 286° |
| 2026-04-27 13:20 | 69.41830 | 18.79092 | 6552 ft | 235 kts | 296° |
| 2026-04-27 13:20 | 69.42883 | 18.75909 | 6308 ft | 219 kts | 336° |
| 2026-04-27 13:21 | 69.44378 | 18.75566 | 5913 ft | 223 kts | 14° |
| 2026-04-27 13:21 | 69.45858 | 18.77017 | 5560 ft | 225 kts | 14° |
| 2026-04-27 13:21 | 69.47368 | 18.78086 | 5238 ft | 223 kts | 11° |
| 2026-04-27 13:21 | 69.48882 | 18.79058 | 5033 ft | 220 kts | 11° |
| 2026-04-27 13:22 | 69.50351 | 18.80014 | 4786 ft | 213 kts | 11° |
| 2026-04-27 13:22 | 69.51791 | 18.80956 | 4419 ft | 213 kts | 11° |
| 2026-04-27 13:22 | 69.53230 | 18.81900 | 4032 ft | 210 kts | 11° |
| 2026-04-27 13:22 | 69.54621 | 18.82815 | 3638 ft | 201 kts | 11° |
| 2026-04-27 13:23 | 69.55960 | 18.83697 | 3264 ft | 195 kts | 11° |
| 2026-04-27 13:23 | 69.57245 | 18.84544 | 2913 ft | 187 kts | 11° |
| 2026-04-27 13:23 | 69.58474 | 18.85354 | 2540 ft | 175 kts | 10° |
| 2026-04-27 13:23 | 69.59608 | 18.86104 | 2223 ft | 161 kts | 10° |
| 2026-04-27 13:24 | 69.60659 | 18.86799 | 1948 ft | 148 kts | 10° |
| 2026-04-27 13:24 | 69.61610 | 18.87429 | 1650 ft | 133 kts | 9° |
| 2026-04-27 13:24 | 69.62480 | 18.88005 | 1391 ft | 125 kts | 10° |
| 2026-04-27 13:24 | 69.63325 | 18.88563 | 1142 ft | 124 kts | 9° |
| 2026-04-27 13:25 | 69.64172 | 18.89124 | 909 ft | 126 kts | 9° |
| 2026-04-27 13:25 | 69.65034 | 18.89695 | 679 ft | 127 kts | 10° |
| 2026-04-27 13:25 | 69.65898 | 18.90271 | 456 ft | 127 kts | 10° |
| 2026-04-27 13:25 | 69.66469 | 18.90644 | 314 ft | 126 kts | 10° |
| 2026-04-27 13:26 | 69.67322 | 18.91217 | 65 ft | 125 kts | 11° |
| 2026-04-27 13:26 | 69.68075 | 18.91715 | 32 ft | 89 kts | 13° |
| 2026-04-27 13:26 | 69.68492 | 18.91995 | 26 ft | 30 kts | 13° |
| 2026-04-27 13:26 | 69.68600 | 18.92025 | 23 ft | 12 kts | 25° |
| 2026-04-27 13:27 | 69.68565 | 18.92044 | 25 ft | 9 kts | 194° |
| 2026-04-27 13:27 | 69.68485 | 18.91987 | 26 ft | 14 kts | 193° |
| 2026-04-27 13:27 | 69.68374 | 18.91915 | 26 ft | 18 kts | 192° |
| 2026-04-27 13:27 | 69.68318 | 18.91748 | 26 ft | 13 kts | 279° |
| 2026-04-27 13:28 | 69.68321 | 18.91508 | 27 ft | 13 kts | 222° |
| 2026-04-27 13:28 | 69.68226 | 18.91433 | 29 ft | 15 kts | 192° |
| 2026-04-27 13:28 | 69.68122 | 18.91363 | 32 ft | 14 kts | 193° |
| 2026-04-27 13:28 | 69.68046 | 18.91313 | 34 ft | 11 kts | 193° |
| 2026-04-27 13:29 | 69.67963 | 18.91254 | 36 ft | 13 kts | 194° |
| 2026-04-27 13:29 | 69.67881 | 18.91170 | 37 ft | 10 kts | 236° |
| 2026-04-27 13:29 | 69.67889 | 18.90964 | 37 ft | 9 kts | 283° |
| 2026-04-27 13:29 | 69.67895 | 18.90891 | 37 ft | 3 kts | 283° |
| 2026-04-27 13:30 | 69.67897 | 18.90861 | 37 ft | 1 kts | 283° |
| 2026-04-27 13:30 | 69.67897 | 18.90860 | 37 ft | 0 kts | 283° |